Time;durP1;ratioP1;P1;durP2;ratioP2;P2;SDS_P1;SDS_P2;PMS_P1;PMS_P2;Temp;Humidity;BMP_temperature;BMP_pressure;BME280_temperature;BME280_humidity;BME280_pressure;Samples;Min_cycle;Max_cycle;Signal;HPM_P1;HPM_P2
2023/10/07 00:02:50;;;;;;;;;;;;;;;17.40;45.45;100221.59;4996186;28;19930;-70
2023/10/07 00:05:16;;;;;;;;;;;;;;;17.21;45.74;100216.66;5014483;28;20015;-70
2023/10/07 00:07:45;;;;;;;;;;;;;;;17.24;45.67;100213.91;5013504;28;20451;-70
2023/10/07 00:10:25;;;;;;;;;;;;;;;17.17;45.61;100212.91;5014032;28;19943;-70
2023/10/07 00:12:51;;;;;;;;;;;;;;;17.01;45.85;100216.53;5016505;28;20324;-70
2023/10/07 00:15:17;;;;;;;;;;;;;;;16.53;46.99;100213.47;5014339;28;20382;-70
2023/10/07 00:17:47;;;;;;;;;;;;;;;16.66;46.77;100214.28;5004324;28;20012;-70
2023/10/07 00:20:12;;;;;;;;;;;;;;;16.05;48.24;100228.19;5014412;28;19917;-70
2023/10/07 00:22:42;;;;;;;;;;;;;;;16.17;48.39;100234.97;5026011;28;19973;-70
2023/10/07 00:25:07;;;;;;;;;;;;;;;16.42;47.33;100236.59;5014753;28;20391;-70
2023/10/07 00:27:38;;;;;;;;;;;;;;;16.73;47.66;100242.75;5000440;28;19924;-70
2023/10/07 00:30:13;;;;;;;;;;;;;;;16.54;49.05;100249.84;4995293;28;20384;-71
2023/10/07 00:32:38;;;;;;;;;;;;;;;16.14;48.99;100256.28;5009442;28;19918;-70
2023/10/07 00:35:06;;;;;;;;;;;;;;;16.16;50.27;100265.19;5014684;28;19924;-70
2023/10/07 00:37:33;;;;;;;;;;;;;;;16.38;48.90;100252.59;5027548;28;20367;-70
2023/10/07 00:40:08;;;;;;;;;;;;;;;16.21;49.04;100252.84;5014828;28;19921;-70
2023/10/07 00:42:34;;;;;;;;;;;;;;;16.42;48.21;100262.00;5000286;28;20352;-70
2023/10/07 00:45:02;;;;;;;;;;;;;;;16.61;48.23;100252.06;5008829;28;19975;-70
2023/10/07 00:47:42;;;;;;;;;;;;;;;16.40;48.21;100255.88;5003248;28;20358;-70
2023/10/07 00:50:09;;;;;;;;;;;;;;;16.40;48.50;100249.41;5013291;28;19972;-70
2023/10/07 00:52:48;;;;;;;;;;;;;;;16.32;48.24;100254.03;5027737;28;19956;-69
2023/10/07 00:55:18;;;;;;;;;;;;;;;15.94;49.43;100252.41;5014191;28;19917;-70
2023/10/07 00:57:51;;;;;;;;;;;;;;;16.14;48.92;100253.44;4999113;28;19924;-70
2023/10/07 01:02:46;;;;;;;;;;;;;;;16.18;49.07;100247.94;4994721;28;19922;-70
2023/10/07 01:05:32;;;;;;;;;;;;;;;16.27;48.95;100246.63;5009494;28;19922;-70
2023/10/07 01:07:58;;;;;;;;;;;;;;;16.47;48.58;100248.81;4997639;28;20424;-69
2023/10/07 01:10:29;;;;;;;;;;;;;;;16.46;48.78;100238.69;5005546;28;19917;-70
2023/10/07 01:13:01;;;;;;;;;;;;;;;16.35;49.41;100241.16;4994363;28;20001;-70
2023/10/07 01:15:26;;;;;;;;;;;;;;;16.53;49.60;100239.72;5011222;28;19925;-70
2023/10/07 01:18:05;;;;;;;;;;;;;;;16.65;49.01;100238.06;4998226;28;20381;-70
2023/10/07 01:23:18;;;;;;;;;;;;;;;16.39;49.93;100237.28;4994462;28;20063;-70
2023/10/07 01:25:44;;;;;;;;;;;;;;;16.41;49.76;100246.25;5028240;28;20399;-69
2023/10/07 01:28:14;;;;;;;;;;;;;;;16.38;50.04;100246.13;4995675;28;19984;-69
2023/10/07 01:30:47;;;;;;;;;;;;;;;16.39;49.61;100240.09;5004838;28;19968;-70
2023/10/07 01:33:24;;;;;;;;;;;;;;;16.53;49.38;100230.44;5009772;28;20004;-70
2023/10/07 01:38:40;;;;;;;;;;;;;;;16.30;49.90;100239.44;4997082;28;19969;-70
2023/10/07 01:41:07;;;;;;;;;;;;;;;16.21;50.47;100238.75;5025735;28;19957;-70
2023/10/07 01:43:39;;;;;;;;;;;;;;;16.31;50.19;100231.78;4992949;28;19992;-70
2023/10/07 01:46:07;;;;;;;;;;;;;;;16.25;50.57;100228.38;5012241;28;19913;-70
2023/10/07 01:48:35;;;;;;;;;;;;;;;15.93;51.57;100231.00;4997908;28;19918;-69
2023/10/07 01:51:05;;;;;;;;;;;;;;;15.79;52.37;100229.31;5004901;28;19956;-70
2023/10/07 01:53:30;;;;;;;;;;;;;;;15.58;52.54;100226.59;5002736;28;20008;-70
2023/10/07 01:55:56;;;;;;;;;;;;;;;15.62;52.54;100229.56;5013413;28;20056;-70
2023/10/07 01:58:24;;;;;;;;;;;;;;;15.59;52.79;100233.88;4993682;28;20309;-70
2023/10/07 02:00:57;;;;;;;;;;;;;;;15.54;53.52;100232.13;5019944;28;19918;-70
2023/10/07 02:03:25;;;;;;;;;;;;;;;15.34;53.78;100238.69;5011157;28;19922;-70
2023/10/07 02:05:51;;;;;;;;;;;;;;;15.17;54.25;100234.84;5012509;28;19924;-69
2023/10/07 02:08:21;;;;;;;;;;;;;;;15.38;53.75;100231.16;4992722;28;20423;-70
2023/10/07 02:10:50;;;;;;;;;;;;;;;15.41;53.55;100244.56;5003126;28;19917;-70
2023/10/07 02:13:20;;;;;;;;;;;;;;;15.21;53.73;100235.00;5011069;28;19929;-70
2023/10/07 02:15:46;;;;;;;;;;;;;;;14.62;54.79;100223.59;5012790;28;19975;-70
2023/10/07 02:18:17;;;;;;;;;;;;;;;14.62;54.38;100225.56;5001249;28;20008;-70
2023/10/07 02:20:49;;;;;;;;;;;;;;;14.24;54.74;100221.72;5026733;28;19921;-69
2023/10/07 02:23:27;;;;;;;;;;;;;;;14.07;55.53;100223.50;5009000;28;20319;-69
2023/10/07 02:25:57;;;;;;;;;;;;;;;13.90;56.15;100216.81;5025643;28;20319;-70
2023/10/07 02:28:22;;;;;;;;;;;;;;;13.69;57.09;100218.75;5026826;28;19924;-69
2023/10/07 02:31:00;;;;;;;;;;;;;;;13.52;57.24;100222.44;5010810;28;19921;-69
2023/10/07 02:33:26;;;;;;;;;;;;;;;13.19;58.35;100226.66;5008056;28;19918;-70
2023/10/07 02:35:55;;;;;;;;;;;;;;;13.28;58.09;100233.09;5010896;28;20415;-70
2023/10/07 02:38:28;;;;;;;;;;;;;;;13.61;56.83;100226.88;4998377;28;20012;-70
2023/10/07 02:40:54;;;;;;;;;;;;;;;13.61;57.51;100224.06;5026839;28;19967;-70
2023/10/07 02:43:20;;;;;;;;;;;;;;;13.36;57.80;100237.03;4992918;28;20407;-70
2023/10/07 02:45:45;;;;;;;;;;;;;;;13.12;58.38;100223.53;5009685;28;19918;-70
2023/10/07 02:48:11;;;;;;;;;;;;;;;13.22;58.55;100222.38;4994091;28;20360;-70
2023/10/07 02:50:41;;;;;;;;;;;;;;;13.23;57.79;100221.22;5002037;28;19918;-70
2023/10/07 02:53:14;;;;;;;;;;;;;;;13.10;58.67;100220.22;5007105;28;19924;-70
2023/10/07 02:55:47;;;;;;;;;;;;;;;13.10;58.80;100214.63;5011236;28;20351;-70
2023/10/07 02:58:24;;;;;;;;;;;;;;;13.26;58.47;100214.91;5010633;28;19917;-70
2023/10/07 03:00:50;;;;;;;;;;;;;;;13.24;58.82;100217.22;5007889;28;19972;-70
2023/10/07 03:03:32;;;;;;;;;;;;;;;13.23;58.81;100215.59;5006719;28;20600;-69
2023/10/07 03:05:58;;;;;;;;;;;;;;;13.05;59.24;100218.41;5024892;28;19956;-70
2023/10/07 03:08:31;;;;;;;;;;;;;;;13.23;59.20;100224.81;5000148;28;19925;-70
2023/10/07 03:11:03;;;;;;;;;;;;;;;13.09;59.86;100218.59;5010033;28;20004;-70
2023/10/07 03:13:37;;;;;;;;;;;;;;;13.05;60.41;100219.25;5022507;28;19961;-69
2023/10/07 03:18:55;;;;;;;;;;;;;;;13.13;61.19;100222.38;5006588;28;19940;-70
2023/10/07 03:21:21;;;;;;;;;;;;;;;13.27;60.70;100222.19;5006733;28;19925;-72
2023/10/07 03:23:47;;;;;;;;;;;;;;;13.14;61.46;100232.44;4996451;28;19921;-69
2023/10/07 03:26:13;;;;;;;;;;;;;;;13.19;61.19;100224.66;5009176;28;20017;-72
2023/10/07 03:28:48;;;;;;;;;;;;;;;13.14;60.95;100226.81;5010405;28;19949;-68
2023/10/07 03:31:18;;;;;;;;;;;;;;;13.06;61.62;100228.50;5005571;28;19924;-69
2023/10/07 03:33:53;;;;;;;;;;;;;;;12.86;62.47;100232.81;5010047;28;20009;-70
2023/10/07 03:38:55;;;;;;;;;;;;;;;13.22;61.39;100240.03;4994503;28;19922;-69
2023/10/07 03:41:21;;;;;;;;;;;;;;;13.13;61.53;100242.88;5003690;28;19961;-69
2023/10/07 03:43:46;;;;;;;;;;;;;;;12.92;62.42;100240.75;5006296;28;20024;-69
2023/10/07 03:46:11;;;;;;;;;;;;;;;12.69;63.29;100242.91;5003978;28;19917;-70
2023/10/07 03:48:39;;;;;;;;;;;;;;;12.80;62.75;100243.41;4997869;28;20028;-69
2023/10/07 03:51:06;;;;;;;;;;;;;;;12.93;62.42;100238.78;5022615;28;19917;-69
2023/10/07 03:53:44;;;;;;;;;;;;;;;12.82;62.40;100235.47;5007259;28;19967;-71
2023/10/07 03:56:09;;;;;;;;;;;;;;;12.78;62.25;100240.09;5009445;28;20040;-71
2023/10/07 03:58:36;;;;;;;;;;;;;;;12.85;62.04;100237.63;5000717;28;19918;-71
2023/10/07 04:01:11;;;;;;;;;;;;;;;12.67;63.22;100234.00;5009769;28;20289;-72
2023/10/07 04:03:40;;;;;;;;;;;;;;;12.60;63.40;100236.47;5008916;28;19921;-70
2023/10/07 04:06:05;;;;;;;;;;;;;;;12.63;63.45;100247.88;5007562;28;21174;-74
2023/10/07 04:08:32;;;;;;;;;;;;;;;12.58;63.45;100253.63;5009606;28;19960;-72
2023/10/07 04:10:58;;;;;;;;;;;;;;;12.54;63.63;100260.22;5025415;28;20423;-72
2023/10/07 04:13:24;;;;;;;;;;;;;;;12.49;63.64;100259.25;5007780;28;19921;-72
2023/10/07 04:15:53;;;;;;;;;;;;;;;12.43;64.00;100251.31;5011191;28;19918;-72
2023/10/07 04:18:23;;;;;;;;;;;;;;;12.49;63.75;100253.63;4996028;28;19941;-72
2023/10/07 04:23:21;;;;;;;;;;;;;;;12.32;64.33;100250.81;4996316;28;19926;-72
2023/10/07 04:25:47;;;;;;;;;;;;;;;12.32;64.27;100253.63;5028525;28;19956;-72
2023/10/07 04:28:15;;;;;;;;;;;;;;;12.46;63.72;100251.50;4996493;28;19925;-72
2023/10/07 04:30:46;;;;;;;;;;;;;;;12.29;64.41;100254.25;5011275;28;19975;-72
2023/10/07 04:33:12;;;;;;;;;;;;;;;12.25;64.80;100258.88;4994834;28;19924;-72
2023/10/07 04:35:38;;;;;;;;;;;;;;;12.33;64.43;100258.09;5011842;28;19921;-72
2023/10/07 04:38:38;;;;;;;;;;;;;;;12.28;64.90;100258.22;5012648;28;19971;-72
2023/10/07 04:43:59;;;;;;;;;;;;;;;12.50;64.41;100262.91;5008647;28;20450;-72
2023/10/07 04:46:28;;;;;;;;;;;;;;;12.86;63.35;100261.75;5010752;28;19917;-72
2023/10/07 04:49:00;;;;;;;;;;;;;;;12.87;62.84;100262.53;4995061;28;19960;-72
2023/10/07 04:54:00;;;;;;;;;;;;;;;12.56;63.00;100261.56;4997891;28;19925;-72
2023/10/07 04:56:25;;;;;;;;;;;;;;;12.43;63.60;100269.00;5010493;28;19918;-72
2023/10/07 04:58:54;;;;;;;;;;;;;;;12.41;63.63;100265.66;5000431;28;20300;-72
2023/10/07 05:01:30;;;;;;;;;;;;;;;12.45;63.32;100269.47;4994801;28;20420;-73
2023/10/07 05:03:55;;;;;;;;;;;;;;;12.42;63.28;100272.91;4996727;28;20017;-73
2023/10/07 05:06:27;;;;;;;;;;;;;;;12.35;63.79;100279.03;5024709;28;20406;-72
2023/10/07 05:08:52;;;;;;;;;;;;;;;12.32;64.21;100270.47;4993250;28;19917;-72
2023/10/07 05:11:20;;;;;;;;;;;;;;;12.33;64.26;100278.53;5009914;28;20374;-72
2023/10/07 05:13:46;;;;;;;;;;;;;;;12.40;64.14;100277.22;5015778;28;20392;-71
2023/10/07 05:16:12;;;;;;;;;;;;;;;12.36;64.16;100285.47;5010159;28;20380;-72
2023/10/07 05:18:38;;;;;;;;;;;;;;;12.30;64.88;100275.53;4994226;28;19917;-72
2023/10/07 05:21:07;;;;;;;;;;;;;;;12.44;64.27;100284.66;5009791;28;19921;-72
2023/10/07 05:23:33;;;;;;;;;;;;;;;12.61;64.03;100288.63;4994686;28;19949;-74
2023/10/07 05:26:03;;;;;;;;;;;;;;;12.45;64.54;100285.47;5010344;28;19924;-72
2023/10/07 05:28:30;;;;;;;;;;;;;;;12.52;64.17;100285.00;5011218;28;19984;-72
2023/10/07 05:30:57;;;;;;;;;;;;;;;12.64;63.96;100282.34;4994072;28;19972;-72
2023/10/07 05:33:25;;;;;;;;;;;;;;;12.81;63.64;100291.97;5008800;28;19920;-72
2023/10/07 05:35:51;;;;;;;;;;;;;;;13.05;63.14;100292.28;5010853;28;19918;-72
2023/10/07 05:38:19;;;;;;;;;;;;;;;12.97;63.13;100284.69;5009517;28;20396;-72
2023/10/07 05:40:46;;;;;;;;;;;;;;;13.21;62.57;100297.38;4994049;28;19917;-71
2023/10/07 05:43:12;;;;;;;;;;;;;;;13.21;62.99;100288.94;5000063;28;19922;-71
2023/10/07 05:45:38;;;;;;;;;;;;;;;13.45;62.27;100293.22;5012959;28;19922;-71
2023/10/07 05:48:04;;;;;;;;;;;;;;;13.53;62.44;100294.34;4996267;28;19976;-72
2023/10/07 05:50:32;;;;;;;;;;;;;;;13.72;62.05;100299.59;4994271;28;20355;-71
2023/10/07 05:52:58;;;;;;;;;;;;;;;13.72;61.74;100303.22;4993739;28;20309;-71
2023/10/07 05:55:23;;;;;;;;;;;;;;;13.83;61.36;100308.50;5006453;28;20115;-71
2023/10/07 05:57:51;;;;;;;;;;;;;;;13.93;61.01;100304.47;5003548;28;20388;-71
2023/10/07 06:00:17;;;;;;;;;;;;;;;13.86;61.36;100319.06;5011922;28;19920;-71
2023/10/07 06:02:42;;;;;;;;;;;;;;;14.07;60.85;100313.50;4998760;28;19922;-72
2023/10/07 06:05:10;;;;;;;;;;;;;;;14.18;60.40;100320.41;5003870;28;19928;-72
2023/10/07 06:07:38;;;;;;;;;;;;;;;14.34;59.06;100322.63;4999691;28;19924;-72
2023/10/07 06:10:04;;;;;;;;;;;;;;;14.22;59.63;100314.09;4993517;28;19940;-71
2023/10/07 06:12:29;;;;;;;;;;;;;;;14.03;59.92;100318.16;5006790;28;19921;-72
2023/10/07 06:14:54;;;;;;;;;;;;;;;14.07;60.74;100312.69;5012798;28;19925;-70
2023/10/07 06:17:20;;;;;;;;;;;;;;;14.30;59.15;100321.66;5001363;28;19960;-73
2023/10/07 06:19:45;;;;;;;;;;;;;;;14.41;59.29;100317.28;5024173;28;19932;-72
2023/10/07 06:22:11;;;;;;;;;;;;;;;14.24;59.74;100314.56;5006428;28;20388;-71
2023/10/07 06:24:40;;;;;;;;;;;;;;;14.28;59.92;100312.75;5027667;28;19914;-73
2023/10/07 06:27:11;;;;;;;;;;;;;;;14.28;60.10;100309.94;5005585;28;19917;-73
2023/10/07 06:29:42;;;;;;;;;;;;;;;14.39;59.59;100313.16;5012558;28;20450;-73
2023/10/07 06:32:22;;;;;;;;;;;;;;;14.40;58.95;100321.28;5004280;28;19918;-74
2023/10/07 06:34:48;;;;;;;;;;;;;;;14.45;59.20;100309.00;5008705;28;19917;-74
2023/10/07 06:37:14;;;;;;;;;;;;;;;14.36;59.28;100302.59;5012026;28;19924;-72
2023/10/07 06:39:40;;;;;;;;;;;;;;;14.53;58.96;100291.22;5010097;28;19917;-75
2023/10/07 06:42:06;;;;;;;;;;;;;;;14.88;58.56;100295.78;5011348;28;19952;-72
2023/10/07 06:44:32;;;;;;;;;;;;;;;15.10;57.53;100297.41;5012363;28;19956;-73
2023/10/07 06:47:02;;;;;;;;;;;;;;;15.50;56.68;100298.84;5012454;28;19917;-72
2023/10/07 06:49:28;;;;;;;;;;;;;;;15.57;55.25;100303.91;4995319;28;19918;-69
2023/10/07 06:51:54;;;;;;;;;;;;;;;15.67;55.47;100306.28;5005858;28;19925;-72
2023/10/07 06:54:32;;;;;;;;;;;;;;;15.76;54.92;100300.53;5010915;28;19968;-69
2023/10/07 06:56:57;;;;;;;;;;;;;;;15.92;54.16;100309.16;5011445;28;19928;-72
2023/10/07 06:59:28;;;;;;;;;;;;;;;16.20;52.99;100313.31;5011277;28;19917;-71
2023/10/07 07:01:55;;;;;;;;;;;;;;;16.37;52.72;100312.25;5010543;28;19918;-74
2023/10/07 07:04:22;;;;;;;;;;;;;;;16.19;52.44;100311.66;5010861;28;19918;-74
2023/10/07 07:06:58;;;;;;;;;;;;;;;16.12;52.70;100304.59;4991238;28;20377;-71
2023/10/07 07:09:41;;;;;;;;;;;;;;;16.49;52.35;100297.28;4999689;28;19982;-74
2023/10/07 07:12:10;;;;;;;;;;;;;;;16.66;51.55;100288.53;5027113;28;20008;-72
2023/10/07 07:14:41;;;;;;;;;;;;;;;16.84;50.89;100285.41;5012121;28;19909;-74
2023/10/07 07:22:53;;;;;;;;;;;;;;;17.03;50.20;100281.16;4992298;28;19918;-74
2023/10/07 07:27:53;;;;;;;;;;;;;;;17.86;48.69;100285.38;4992567;28;19914;-73
2023/10/07 07:30:31;;;;;;;;;;;;;;;17.88;48.12;100288.69;4994395;28;19926;-73
2023/10/07 07:33:00;;;;;;;;;;;;;;;17.81;48.22;100287.31;5011810;28;19914;-74
2023/10/07 07:35:45;;;;;;;;;;;;;;;18.15;46.93;100269.16;5008780;28;19923;-74
2023/10/07 07:41:01;;;;;;;;;;;;;;;18.50;45.34;100276.84;5012148;28;19913;-74
2023/10/07 07:43:26;;;;;;;;;;;;;;;18.35;45.00;100265.19;5011622;28;20404;-74
2023/10/07 07:45:57;;;;;;;;;;;;;;;18.45;45.39;100277.13;5010430;28;19921;-74
2023/10/07 07:48:25;;;;;;;;;;;;;;;18.35;45.49;100270.88;5010362;28;19913;-73
2023/10/07 07:50:52;;;;;;;;;;;;;;;18.14;45.61;100264.69;5009007;28;19975;-73
2023/10/07 07:53:20;;;;;;;;;;;;;;;18.58;45.04;100263.66;5015622;28;20501;-73
2023/10/07 07:55:45;;;;;;;;;;;;;;;18.50;44.96;100257.03;5015568;28;20301;-73
2023/10/07 07:58:11;;;;;;;;;;;;;;;18.81;44.24;100258.06;5014080;28;19941;-73
2023/10/07 08:00:56;;;;;;;;;;;;;;;18.96;43.57;100255.56;5014282;28;19964;-73
2023/10/07 08:03:23;;;;;;;;;;;;;;;19.20;43.53;100249.59;5013984;28;19918;-73
2023/10/07 08:05:49;;;;;;;;;;;;;;;19.34;42.71;100251.06;5013256;28;20028;-73
2023/10/07 08:08:29;;;;;;;;;;;;;;;19.53;42.82;100246.53;5006764;28;19922;-73
2023/10/07 08:10:55;;;;;;;;;;;;;;;19.40;42.80;100243.88;4995732;28;19914;-72
2023/10/07 08:13:23;;;;;;;;;;;;;;;19.60;41.98;100247.47;4995456;28;19922;-73
2023/10/07 08:15:50;;;;;;;;;;;;;;;19.27;42.36;100245.25;4995597;28;20012;-74
2023/10/07 08:18:15;;;;;;;;;;;;;;;19.69;42.26;100241.56;4995561;28;19913;-74
2023/10/07 08:20:48;;;;;;;;;;;;;;;19.74;41.71;100241.25;5010951;28;19982;-74
2023/10/07 08:23:28;;;;;;;;;;;;;;;20.12;42.14;100237.81;5014899;28;19924;-74
2023/10/07 08:26:10;;;;;;;;;;;;;;;20.12;40.73;100234.97;4997226;28;19991;-73
2023/10/07 08:28:43;;;;;;;;;;;;;;;20.25;40.74;100233.53;5008770;28;19924;-73
2023/10/07 08:31:22;;;;;;;;;;;;;;;20.39;40.41;100229.28;5013669;28;19917;-73
2023/10/07 08:34:03;;;;;;;;;;;;;;;20.48;40.03;100232.66;5014821;28;19971;-74
2023/10/07 08:36:29;;;;;;;;;;;;;;;20.22;40.87;100231.47;5030033;28;19917;-74
2023/10/07 08:39:05;;;;;;;;;;;;;;;20.78;40.12;100226.16;5013666;28;19941;-75
2023/10/07 08:41:31;;;;;;;;;;;;;;;20.77;39.73;100218.84;5011198;28;20004;-74
2023/10/07 08:44:08;;;;;;;;;;;;;;;20.88;40.09;100213.31;5013074;28;20020;-73
2023/10/07 08:46:39;;;;;;;;;;;;;;;21.15;39.39;100205.50;5013394;28;20385;-74
2023/10/07 08:49:12;;;;;;;;;;;;;;;21.24;39.10;100202.31;5013215;28;19997;-71
2023/10/07 08:51:41;;;;;;;;;;;;;;;21.09;39.68;100204.19;5014607;28;19944;-74
2023/10/07 08:54:10;;;;;;;;;;;;;;;21.53;41.03;100201.78;5014287;28;19913;-71
2023/10/07 08:56:37;;;;;;;;;;;;;;;21.77;40.75;100196.72;5013739;28;19917;-76
2023/10/07 08:59:12;;;;;;;;;;;;;;;21.80;39.51;100195.94;5013789;28;19917;-75
2023/10/07 09:01:38;;;;;;;;;;;;;;;21.74;38.56;100187.78;4994180;28;19922;-75
2023/10/07 09:04:08;;;;;;;;;;;;;;;20.99;39.32;100190.66;4993619;28;19924;-76
2023/10/07 09:06:37;;;;;;;;;;;;;;;21.52;40.37;100185.94;4994684;28;20348;-75
2023/10/07 09:09:06;;;;;;;;;;;;;;;21.89;39.79;100185.03;5009610;28;19914;-75
2023/10/07 09:11:32;;;;;;;;;;;;;;;22.21;39.09;100178.75;5009614;28;19945;-75
2023/10/07 09:14:02;;;;;;;;;;;;;;;22.51;38.67;100185.44;4999835;28;20365;-76
2023/10/07 09:16:32;;;;;;;;;;;;;;;22.33;37.50;100182.47;5011764;28;19921;-77
2023/10/07 09:18:59;;;;;;;;;;;;;;;22.26;37.92;100178.34;5008226;28;20380;-71
2023/10/07 09:21:28;;;;;;;;;;;;;;;22.08;38.02;100171.72;4997923;28;19925;-71
2023/10/07 09:23:59;;;;;;;;;;;;;;;22.47;37.21;100167.47;5013745;28;19925;-71
2023/10/07 09:26:34;;;;;;;;;;;;;;;22.76;37.62;100159.88;5013453;28;19924;-72
2023/10/07 09:29:14;;;;;;;;;;;;;;;22.86;37.18;100163.97;5014122;28;19917;-68
2023/10/07 09:31:41;;;;;;;;;;;;;;;22.15;37.27;100160.38;5013271;28;19913;-68
2023/10/07 09:34:10;;;;;;;;;;;;;;;21.87;37.94;100145.56;5011194;28;20434;-70
2023/10/07 09:36:40;;;;;;;;;;;;;;;21.74;37.93;100147.94;5013356;28;19920;-68
2023/10/07 09:39:33;;;;;;;;;;;;;;;22.00;38.19;100146.06;5013459;28;20464;-67
2023/10/07 09:42:18;;;;;;;;;;;;;;;22.50;37.47;100133.31;5013459;28;19963;-68
2023/10/07 09:44:45;;;;;;;;;;;;;;;22.90;36.81;100135.47;5013257;28;20451;-70
2023/10/07 09:47:19;;;;;;;;;;;;;;;22.85;36.58;100128.09;5012592;28;19913;-70
2023/10/07 09:49:45;;;;;;;;;;;;;;;23.28;36.59;100124.53;5010560;28;20408;-71
2023/10/07 09:52:17;;;;;;;;;;;;;;;23.58;35.94;100123.31;5013249;28;19917;-70
2023/10/07 09:54:49;;;;;;;;;;;;;;;23.87;35.45;100116.75;5012872;28;19918;-70
2023/10/07 09:57:30;;;;;;;;;;;;;;;23.89;36.30;100115.13;5012318;28;19917;-70
2023/10/07 10:03:04;;;;;;;;;;;;;;;24.32;34.22;100116.25;5013195;28;19972;-70
2023/10/07 10:05:31;;;;;;;;;;;;;;;23.93;34.51;100115.09;5010620;28;19966;-70
2023/10/07 10:08:19;;;;;;;;;;;;;;;23.81;34.81;100113.50;5006109;28;19918;-70
2023/10/07 10:10:49;;;;;;;;;;;;;;;24.20;34.00;100115.47;5012226;28;19985;-70
2023/10/07 10:16:19;;;;;;;;;;;;;;;24.34;34.34;100096.63;5012723;28;19996;-70
2023/10/07 10:18:50;;;;;;;;;;;;;;;24.50;34.50;100091.25;5011651;28;20388;-70
2023/10/07 10:21:21;;;;;;;;;;;;;;;24.58;32.95;100085.50;5011926;28;20331;-70
2023/10/07 10:23:50;;;;;;;;;;;;;;;24.65;32.45;100076.88;5002488;28;19972;-70
2023/10/07 10:26:26;;;;;;;;;;;;;;;24.02;33.11;100072.63;5027307;28;19917;-70
2023/10/07 10:28:59;;;;;;;;;;;;;;;24.24;33.26;100061.97;5029842;28;20359;-70
2023/10/07 10:31:32;;;;;;;;;;;;;;;24.77;32.90;100056.41;5030878;28;19917;-70
2023/10/07 10:33:58;;;;;;;;;;;;;;;25.09;33.30;100052.47;5026754;28;19928;-70
2023/10/07 10:36:24;;;;;;;;;;;;;;;25.47;32.83;100045.22;5012368;28;20399;-70
2023/10/07 10:38:49;;;;;;;;;;;;;;;25.49;32.07;100034.97;5009120;28;19920;-70
2023/10/07 10:41:25;;;;;;;;;;;;;;;25.74;32.33;100038.81;5000807;28;19929;-69
2023/10/07 10:43:51;;;;;;;;;;;;;;;25.67;31.41;100024.56;5010436;28;20015;-70
2023/10/07 10:46:17;;;;;;;;;;;;;;;25.86;31.48;100026.00;5007451;28;19917;-72
2023/10/07 10:48:42;;;;;;;;;;;;;;;25.74;31.83;100022.44;4995137;28;19914;-67
2023/10/07 10:51:08;;;;;;;;;;;;;;;25.79;31.80;100021.97;5012159;28;20518;-70
2023/10/07 10:53:34;;;;;;;;;;;;;;;25.70;31.89;100017.97;5012062;28;19913;-70
2023/10/07 10:56:00;;;;;;;;;;;;;;;25.81;32.16;100012.94;5002651;28;19921;-72
2023/10/07 10:58:26;;;;;;;;;;;;;;;25.99;31.06;100003.31;5009503;28;20050;-71
2023/10/07 11:00:54;;;;;;;;;;;;;;;25.95;31.99;99997.63;5009357;28;19995;-68
2023/10/07 11:03:21;;;;;;;;;;;;;;;26.06;31.34;99998.31;5005813;28;20419;-69
2023/10/07 11:05:48;;;;;;;;;;;;;;;25.58;31.48;99985.81;5007454;28;20008;-69
2023/10/07 11:08:22;;;;;;;;;;;;;;;25.33;31.27;99980.31;5024567;28;19928;-71
2023/10/07 11:10:48;;;;;;;;;;;;;;;25.80;31.20;99976.94;5009511;28;19993;-69
2023/10/07 11:13:13;;;;;;;;;;;;;;;26.23;29.77;99977.66;4992467;28;20432;-68
2023/10/07 11:15:41;;;;;;;;;;;;;;;26.20;29.55;99971.56;5009219;28;19984;-70
2023/10/07 11:18:12;;;;;;;;;;;;;;;25.84;30.35;99971.19;5011578;28;20079;-70
2023/10/07 11:20:39;;;;;;;;;;;;;;;25.93;31.21;99972.28;5009804;28;19917;-71
2023/10/07 11:23:08;;;;;;;;;;;;;;;25.91;30.04;99965.38;5011717;28;20385;-70
2023/10/07 11:25:34;;;;;;;;;;;;;;;25.41;31.24;99955.28;5011147;28;19918;-70
2023/10/07 11:28:05;;;;;;;;;;;;;;;26.01;30.56;99949.25;5008326;28;19960;-70
2023/10/07 11:30:40;;;;;;;;;;;;;;;26.34;29.99;99933.25;4992028;28;20312;-70
2023/10/07 11:33:16;;;;;;;;;;;;;;;25.99;29.88;99934.56;5009170;28;19917;-70
2023/10/07 11:35:55;;;;;;;;;;;;;;;25.88;29.57;99937.56;5009917;28;19940;-70
2023/10/07 11:38:21;;;;;;;;;;;;;;;26.35;30.15;99925.47;5011108;28;20323;-70
2023/10/07 11:40:46;;;;;;;;;;;;;;;26.44;29.88;99922.88;5009061;28;20020;-70
2023/10/07 11:43:12;;;;;;;;;;;;;;;26.49;29.26;99928.09;5011867;28;20004;-70
2023/10/07 11:45:37;;;;;;;;;;;;;;;26.66;29.77;99922.50;5011584;28;19924;-70
2023/10/07 11:48:04;;;;;;;;;;;;;;;26.56;29.33;99914.91;5005515;28;19921;-70
2023/10/07 11:50:31;;;;;;;;;;;;;;;26.55;29.98;99919.03;5010337;28;19924;-70
2023/10/07 11:53:00;;;;;;;;;;;;;;;26.67;28.56;99918.41;5011329;28;20020;-71
2023/10/07 11:55:25;;;;;;;;;;;;;;;26.77;27.87;99913.72;5010677;28;20000;-70
2023/10/07 11:57:51;;;;;;;;;;;;;;;26.33;28.57;99907.91;5011219;28;20423;-70
2023/10/07 12:00:34;;;;;;;;;;;;;;;26.81;28.22;99913.66;5009258;28;20249;-70
2023/10/07 12:03:06;;;;;;;;;;;;;;;26.87;27.79;99911.94;5023049;28;19921;-70
2023/10/07 12:05:32;;;;;;;;;;;;;;;27.11;27.03;99909.03;5009977;28;19918;-70
2023/10/07 12:08:01;;;;;;;;;;;;;;;27.22;26.04;99911.72;5009658;28;19917;-70
2023/10/07 12:10:30;;;;;;;;;;;;;;;27.46;26.05;99907.53;5010033;28;19917;-73
2023/10/07 12:12:57;;;;;;;;;;;;;;;27.27;26.39;99899.72;5011036;28;19987;-70
2023/10/07 12:15:25;;;;;;;;;;;;;;;27.42;26.90;99894.50;5011265;28;19914;-70
2023/10/07 12:17:50;;;;;;;;;;;;;;;27.38;27.16;99888.00;5010842;28;19923;-70
2023/10/07 12:20:16;;;;;;;;;;;;;;;27.57;27.07;99886.41;5009804;28;20004;-70
2023/10/07 12:22:42;;;;;;;;;;;;;;;27.18;26.68;99875.25;5010001;28;19939;-70
2023/10/07 12:25:18;;;;;;;;;;;;;;;26.78;27.00;99875.19;5008304;28;19968;-71
2023/10/07 12:27:44;;;;;;;;;;;;;;;26.86;27.80;99875.84;5018553;28;19924;-71
2023/10/07 12:30:11;;;;;;;;;;;;;;;26.72;27.62;99871.19;5011209;28;19917;-72
2023/10/07 12:32:37;;;;;;;;;;;;;;;27.16;26.62;99868.38;5009975;28;20303;-70
2023/10/07 12:35:05;;;;;;;;;;;;;;;27.40;25.99;99856.81;5009947;28;19918;-71
2023/10/07 12:37:31;;;;;;;;;;;;;;;27.66;25.86;99857.13;5005952;28;20405;-71
2023/10/07 12:39:56;;;;;;;;;;;;;;;27.82;25.01;99853.47;5013146;28;20000;-71
2023/10/07 12:42:25;;;;;;;;;;;;;;;27.69;24.13;99850.47;5002752;28;20009;-71
2023/10/07 12:44:50;;;;;;;;;;;;;;;27.97;24.29;99839.56;4993834;28;19918;-71
2023/10/07 12:47:16;;;;;;;;;;;;;;;28.17;24.36;99846.09;5001465;28;20019;-71
2023/10/07 12:49:45;;;;;;;;;;;;;;;28.02;24.69;99833.31;5014452;28;20311;-74
2023/10/07 12:52:11;;;;;;;;;;;;;;;28.10;24.13;99834.72;5012743;28;20414;-71
2023/10/07 12:54:36;;;;;;;;;;;;;;;27.90;24.35;99826.19;5012933;28;19921;-71
2023/10/07 12:57:03;;;;;;;;;;;;;;;27.51;25.41;99828.66;5011178;28;20384;-71
2023/10/07 12:59:35;;;;;;;;;;;;;;;26.16;26.66;99824.56;5013949;28;20277;-71
2023/10/07 13:02:03;;;;;;;;;;;;;;;26.57;26.34;99828.41;5005342;28;20271;-69
2023/10/07 13:04:35;;;;;;;;;;;;;;;27.21;26.14;99821.91;5009601;28;19921;-71
2023/10/07 13:07:09;;;;;;;;;;;;;;;27.37;26.06;99820.34;5009469;28;19964;-72
2023/10/07 13:09:35;;;;;;;;;;;;;;;27.35;25.64;99820.00;5012653;28;19917;-72
2023/10/07 13:12:05;;;;;;;;;;;;;;;27.56;25.67;99807.25;5025583;28;19917;-72
2023/10/07 13:14:31;;;;;;;;;;;;;;;27.37;25.47;99814.59;5013826;28;19917;-72
2023/10/07 13:16:56;;;;;;;;;;;;;;;27.53;25.29;99808.97;5021106;28;19924;-72
2023/10/07 13:19:26;;;;;;;;;;;;;;;27.63;25.53;99812.84;5019541;28;19917;-72
2023/10/07 13:22:01;;;;;;;;;;;;;;;27.84;24.75;99799.25;5011517;28;19928;-72
2023/10/07 13:24:26;;;;;;;;;;;;;;;27.94;25.18;99798.19;5012947;28;20071;-72
2023/10/07 13:26:52;;;;;;;;;;;;;;;27.88;25.00;99797.91;5006044;28;19964;-72
2023/10/07 13:29:17;;;;;;;;;;;;;;;28.17;24.03;99796.38;5006238;28;19965;-72